createdAt,value
2023-05-22T00:27:37.708Z,101333.59
2023-05-22T00:30:04.620Z,101331.50
2023-05-22T00:32:31.202Z,101325.81
2023-05-22T00:34:57.791Z,101329.22
2023-05-22T00:37:25.448Z,101326.19
2023-05-22T00:39:52.008Z,101326.09
2023-05-22T00:42:18.685Z,101323.84
2023-05-22T00:44:45.941Z,101323.84
2023-05-22T00:47:12.545Z,101325.59
2023-05-22T00:49:39.360Z,101317.88
2023-05-22T00:52:05.940Z,101323.06
2023-05-22T00:54:32.737Z,101316.56
2023-05-22T00:57:01.378Z,101313.56
2023-05-22T00:59:28.768Z,101317.53
2023-05-22T01:01:56.002Z,101308.00
2023-05-22T01:04:22.735Z,101312.00
2023-05-22T01:06:49.441Z,101310.44
2023-05-22T01:09:16.122Z,101309.94
2023-05-22T01:12:01.329Z,101309.94
2023-05-22T01:14:36.888Z,101311.09
2023-05-22T01:17:08.989Z,101312.69
2023-05-22T01:20:07.368Z,101315.19
2023-05-22T01:23:12.220Z,101307.41
2023-05-22T01:26:03.714Z,101310.72
2023-05-22T01:28:55.329Z,101308.78
2023-05-22T01:31:25.020Z,101300.41
2023-05-22T01:33:54.958Z,101310.59
2023-05-22T01:36:22.564Z,101305.16
2023-05-22T01:38:49.742Z,101306.81
2023-05-22T01:41:16.408Z,101305.34
2023-05-22T01:43:44.190Z,101309.16
2023-05-22T01:46:10.976Z,101305.59
2023-05-22T01:48:37.627Z,101315.03
2023-05-22T01:51:31.580Z,101308.53
2023-05-22T01:54:07.488Z,101309.91
2023-05-22T01:56:41.695Z,101306.81
2023-05-22T01:59:21.467Z,101303.59
2023-05-22T02:01:51.136Z,101311.63
2023-05-22T02:04:20.628Z,101304.25
2023-05-22T02:06:47.549Z,101309.66
2023-05-22T02:09:15.110Z,101302.22
2023-05-22T02:11:42.256Z,101308.34
2023-05-22T02:14:12.117Z,101305.44
2023-05-22T02:16:38.837Z,101311.25
2023-05-22T02:19:08.691Z,101305.78
2023-05-22T02:21:35.843Z,101304.16
2023-05-22T02:24:02.865Z,101306.59
2023-05-22T02:26:29.486Z,101299.63
2023-05-22T02:28:56.413Z,101302.94
2023-05-22T02:31:22.932Z,101306.25
2023-05-22T02:33:49.581Z,101305.56
2023-05-22T02:36:16.325Z,101307.13
2023-05-22T02:38:46.876Z,101302.63
2023-05-22T02:41:13.649Z,101300.94
2023-05-22T02:43:40.355Z,101298.19
2023-05-22T02:46:06.941Z,101301.41
2023-05-22T02:48:33.467Z,101295.47
2023-05-22T02:51:00.028Z,101295.00
2023-05-22T02:53:26.708Z,101296.91
2023-05-22T02:55:53.245Z,101296.22
2023-05-22T02:58:21.158Z,101287.06
2023-05-22T03:00:47.706Z,101287.53
2023-05-22T03:03:14.326Z,101289.97
2023-05-22T03:05:41.503Z,101283.22
2023-05-22T03:08:08.898Z,101275.84
2023-05-22T03:10:35.424Z,101277.47
2023-05-22T03:13:01.994Z,101280.78
2023-05-22T03:15:28.818Z,101276.88
2023-05-22T03:18:00.082Z,101271.72
2023-05-22T03:20:26.931Z,101270.88
2023-05-22T03:22:53.505Z,101273.63
2023-05-22T03:25:21.494Z,101268.47
2023-05-22T03:27:48.241Z,101268.56
2023-05-22T03:30:15.174Z,101268.09
2023-05-22T03:32:48.927Z,101266.06
2023-05-22T03:35:19.587Z,101275.91
2023-05-22T03:37:46.749Z,101271.66
2023-05-22T03:40:13.951Z,101266.88
2023-05-22T03:42:40.652Z,101272.81
2023-05-22T03:45:07.515Z,101274.91
2023-05-22T03:47:37.119Z,101273.47
2023-05-22T03:50:03.825Z,101276.91
2023-05-22T03:52:30.499Z,101280.47
2023-05-22T03:54:57.044Z,101279.75
2023-05-22T03:57:23.572Z,101272.19
2023-05-22T03:59:50.124Z,101276.03
2023-05-22T04:02:17.363Z,101264.88
2023-05-22T04:04:46.151Z,101267.13
2023-05-22T04:07:13.458Z,101268.34
2023-05-22T04:09:40.590Z,101275.16
2023-05-22T04:12:07.894Z,101273.88
2023-05-22T04:14:34.497Z,101268.09
2023-05-22T04:17:01.120Z,101270.31
2023-05-22T04:19:29.999Z,101269.25
2023-05-22T04:21:58.211Z,101276.56
2023-05-22T04:24:25.430Z,101275.50
2023-05-22T04:26:52.052Z,101272.69
2023-05-22T04:29:20.349Z,101273.31
2023-05-22T04:31:47.722Z,101273.66
2023-05-22T04:34:15.746Z,101266.25
2023-05-22T04:36:45.173Z,101270.66
2023-05-22T04:39:11.892Z,101269.88
2023-05-22T04:41:39.046Z,101269.44
2023-05-22T04:44:05.663Z,101272.53
2023-05-22T04:46:34.418Z,101270.06
2023-05-22T04:49:02.255Z,101266.41
2023-05-22T04:51:31.037Z,101264.81
2023-05-22T04:53:58.396Z,101257.88
2023-05-22T04:56:35.540Z,101263.25
2023-05-22T04:59:04.645Z,101264.38
2023-05-22T05:01:33.329Z,101263.97
2023-05-22T05:04:00.605Z,101261.69
2023-05-22T05:06:27.395Z,101253.41
2023-05-22T05:08:54.149Z,101262.91
2023-05-22T05:11:21.637Z,101262.56
2023-05-22T05:13:48.222Z,101258.59
2023-05-22T05:16:14.832Z,101258.59
2023-05-22T05:18:41.422Z,101259.66
2023-05-22T05:21:08.180Z,101255.66
2023-05-22T05:23:34.751Z,101258.44
2023-05-22T05:26:01.545Z,101262.03
2023-05-22T05:28:28.155Z,101264.69
2023-05-22T05:30:54.799Z,101260.94
2023-05-22T05:33:47.833Z,101265.09
2023-05-22T05:36:31.220Z,101268.28
2023-05-22T05:38:58.842Z,101266.09
2023-05-22T05:41:26.674Z,101269.72
2023-05-22T05:44:00.140Z,101272.13
2023-05-22T05:46:29.729Z,101277.00
2023-05-22T05:48:56.309Z,101279.41
2023-05-22T05:51:22.844Z,101280.03
2023-05-22T05:53:50.036Z,101279.41
2023-05-22T05:56:16.860Z,101282.25
2023-05-22T05:58:44.892Z,101279.81
2023-05-22T06:01:27.917Z,101280.59
2023-05-22T06:03:55.361Z,101275.06
2023-05-22T06:06:26.164Z,101275.31
2023-05-22T06:09:11.195Z,101272.03
2023-05-22T06:12:04.297Z,101269.44
2023-05-22T06:14:30.895Z,101268.81
2023-05-22T06:16:58.295Z,101272.09
2023-05-22T06:19:25.005Z,101271.94
2023-05-22T06:21:52.249Z,101274.97
2023-05-22T06:24:20.204Z,101274.94
2023-05-22T06:26:46.762Z,101266.69
2023-05-22T06:29:14.526Z,101273.28
2023-05-22T06:31:41.131Z,101273.09
2023-05-22T06:34:08.588Z,101262.56
2023-05-22T06:36:35.356Z,101268.31
2023-05-22T06:39:02.742Z,101264.19
2023-05-22T06:41:47.753Z,101262.41
2023-05-22T06:44:14.614Z,101263.44
2023-05-22T06:46:41.373Z,101265.00
2023-05-22T06:49:11.587Z,101266.88
2023-05-22T06:51:46.431Z,101269.75
2023-05-22T06:54:15.460Z,101266.91
2023-05-22T06:56:45.984Z,101271.63
2023-05-22T06:59:16.691Z,101264.19
2023-05-22T07:02:08.748Z,101269.75
2023-05-22T07:04:56.130Z,101258.81
2023-05-22T07:07:33.979Z,101261.44
2023-05-22T07:10:00.751Z,101263.69
2023-05-22T07:12:29.587Z,101267.00
2023-05-22T07:14:57.806Z,101264.22
2023-05-22T07:17:26.095Z,101265.66
2023-05-22T07:19:53.258Z,101270.66
2023-05-22T07:22:20.754Z,101269.53
2023-05-22T07:24:48.111Z,101265.78
2023-05-22T07:27:16.535Z,101270.09
2023-05-22T07:29:44.856Z,101268.53
2023-05-22T07:32:11.449Z,101264.78
2023-05-22T07:34:38.114Z,101260.09
2023-05-22T07:37:09.249Z,101262.41
2023-05-22T07:39:35.897Z,101255.72
2023-05-22T07:42:03.151Z,101255.84
2023-05-22T07:44:31.623Z,101259.44
2023-05-22T07:46:59.508Z,101251.84
2023-05-22T07:49:28.280Z,101253.25
2023-05-22T07:51:54.857Z,101252.88
2023-05-22T07:54:24.404Z,101248.06
2023-05-22T07:56:52.418Z,101248.34
2023-05-22T07:59:21.555Z,101255.91
2023-05-22T08:01:48.113Z,101256.72
2023-05-22T08:04:14.817Z,101255.66
2023-05-22T08:06:41.610Z,101255.00
2023-05-22T08:09:08.160Z,101256.81
2023-05-22T08:11:36.613Z,101254.47
2023-05-22T08:14:04.469Z,101248.81
2023-05-22T08:16:32.043Z,101251.19
2023-05-22T08:18:58.728Z,101257.91
2023-05-22T08:21:25.640Z,101248.13
2023-05-22T08:23:52.179Z,101243.41
2023-05-22T08:26:19.022Z,101242.94
2023-05-22T08:28:45.539Z,101243.41
2023-05-22T08:31:12.668Z,101237.59
2023-05-22T08:33:39.771Z,101226.72
2023-05-22T08:36:06.471Z,101228.59
2023-05-22T08:38:33.061Z,101237.41
2023-05-22T08:41:00.033Z,101238.25
2023-05-22T08:43:28.544Z,101228.41
2023-05-22T08:46:05.878Z,101232.75
2023-05-22T08:48:33.039Z,101222.84
2023-05-22T08:51:04.054Z,101220.97
2023-05-22T08:53:36.067Z,101222.84
2023-05-22T08:56:03.806Z,101224.66
2023-05-22T08:58:32.338Z,101217.75
2023-05-22T09:00:59.061Z,101215.63
2023-05-22T09:03:32.712Z,101218.72
2023-05-22T09:05:59.706Z,101208.16
2023-05-22T09:08:28.721Z,101213.34
2023-05-22T09:10:56.209Z,101209.66
2023-05-22T09:13:30.557Z,101210.00
2023-05-22T09:16:09.396Z,101200.91
2023-05-22T09:18:39.579Z,101213.66
2023-05-22T09:21:11.436Z,101207.69
2023-05-22T09:23:38.243Z,101202.75
2023-05-22T09:26:04.888Z,101203.41
2023-05-22T09:28:35.562Z,101195.19
2023-05-22T09:31:04.264Z,101199.91
2023-05-22T09:33:31.607Z,101192.38
2023-05-22T09:35:58.126Z,101201.00
2023-05-22T09:38:31.530Z,101183.50
2023-05-22T09:40:58.056Z,101186.81
2023-05-22T09:43:25.622Z,101187.47
2023-05-22T09:46:01.886Z,101185.06
2023-05-22T09:48:28.897Z,101181.97
2023-05-22T09:50:56.098Z,101189.22
2023-05-22T09:53:27.484Z,101187.31
2023-05-22T09:55:56.180Z,101191.09
2023-05-22T09:58:24.132Z,101180.22
2023-05-22T10:00:51.012Z,101186.41
2023-05-22T10:03:19.730Z,101177.94
2023-05-22T10:05:50.308Z,101174.66
2023-05-22T10:08:28.588Z,101173.69
2023-05-22T10:10:55.376Z,101186.41
2023-05-22T10:13:21.925Z,101174.03
2023-05-22T10:15:49.573Z,101177.44
2023-05-22T10:18:16.988Z,101176.22
2023-05-22T10:20:44.355Z,101173.25
2023-05-22T10:23:11.253Z,101176.97
2023-05-22T10:25:38.276Z,101168.41
2023-05-22T10:28:07.145Z,101163.84
2023-05-22T10:30:44.445Z,101167.41
2023-05-22T10:33:41.600Z,101162.31
2023-05-22T10:36:14.222Z,101166.97
2023-05-22T10:38:55.942Z,101153.13
2023-05-22T10:41:23.107Z,101159.97
2023-05-22T10:43:50.535Z,101150.47
2023-05-22T10:46:17.822Z,101143.72
2023-05-22T10:48:46.952Z,101147.91
2023-05-22T10:51:15.563Z,101144.03
2023-05-22T10:53:45.410Z,101126.94
2023-05-22T10:56:13.810Z,101132.31
2023-05-22T10:58:44.668Z,101125.72
2023-05-22T11:01:16.222Z,101122.31
2023-05-22T11:04:00.012Z,101123.06
2023-05-22T11:07:02.369Z,101125.63
2023-05-22T11:09:33.602Z,101118.50
2023-05-22T11:12:17.539Z,101122.41
2023-05-22T11:14:58.443Z,101119.09
2023-05-22T11:17:31.406Z,101120.09
2023-05-22T11:20:13.313Z,101125.97
2023-05-22T11:22:42.541Z,101109.97
2023-05-22T11:25:16.804Z,101120.16
2023-05-22T11:27:43.918Z,101109.00
2023-05-22T11:30:11.724Z,101106.63
2023-05-22T11:32:39.714Z,101105.41
2023-05-22T11:35:08.185Z,101105.97
2023-05-22T11:37:39.030Z,101106.94
2023-05-22T11:40:06.566Z,101107.25
2023-05-22T11:42:33.517Z,101104.25
2023-05-22T11:45:00.514Z,101096.13
2023-05-22T11:47:29.050Z,101097.91
2023-05-22T11:50:02.420Z,101099.50
2023-05-22T11:52:33.692Z,101099.28
2023-05-22T11:55:00.740Z,101094.88
2023-05-22T11:57:27.376Z,101095.19
2023-05-22T11:59:53.974Z,101094.66
2023-05-22T12:02:20.720Z,101089.75
2023-05-22T12:04:47.231Z,101091.34
2023-05-22T12:07:14.219Z,101083.41
2023-05-22T12:09:42.488Z,101089.56
2023-05-22T12:12:10.276Z,101082.72
2023-05-22T12:14:36.847Z,101085.81
2023-05-22T12:17:06.454Z,101084.03
2023-05-22T12:19:33.078Z,101070.91
2023-05-22T12:22:00.565Z,101073.94
2023-05-22T12:24:37.764Z,101072.19
2023-05-22T12:27:08.627Z,101065.03
2023-05-22T12:29:35.153Z,101068.63
2023-05-22T12:32:07.290Z,101066.16
2023-05-22T12:34:35.109Z,101069.47
2023-05-22T12:37:02.030Z,101068.28
2023-05-22T12:39:30.009Z,101070.59
2023-05-22T12:41:56.886Z,101066.19
2023-05-22T12:44:23.393Z,101074.25
2023-05-22T12:46:52.077Z,101071.16
2023-05-22T12:49:18.723Z,101068.59
2023-05-22T12:51:45.314Z,101060.78
2023-05-22T12:54:11.827Z,101060.75
2023-05-22T12:56:38.659Z,101060.97
2023-05-22T12:59:05.172Z,101069.59
2023-05-22T13:01:31.901Z,101063.28
2023-05-22T13:03:58.518Z,101059.63
2023-05-22T13:06:25.041Z,101059.59
2023-05-22T13:08:51.565Z,101055.91
2023-05-22T13:11:20.042Z,101049.13
2023-05-22T13:13:46.605Z,101045.44
2023-05-22T13:16:13.181Z,101044.63
2023-05-22T13:18:39.735Z,101039.03
2023-05-22T13:21:06.266Z,101041.03
2023-05-22T13:23:32.885Z,101033.97
2023-05-22T13:26:01.888Z,101031.81
2023-05-22T13:28:28.687Z,101039.94
2023-05-22T13:30:55.219Z,101030.34
2023-05-22T13:33:21.881Z,101039.63
2023-05-22T13:35:48.561Z,101032.06
2023-05-22T13:38:15.094Z,101037.31
2023-05-22T13:40:41.680Z,101028.19
2023-05-22T13:43:08.688Z,101025.06
2023-05-22T13:45:35.627Z,101027.00
2023-05-22T13:48:02.303Z,101024.97
2023-05-22T13:50:28.962Z,101023.13
2023-05-22T13:52:55.634Z,101019.94
2023-05-22T13:55:22.916Z,101017.06
2023-05-22T13:57:49.420Z,101018.16
2023-05-22T14:00:16.338Z,101013.31
2023-05-22T14:02:42.953Z,101016.91
2023-05-22T14:05:09.753Z,101010.34
2023-05-22T14:07:36.294Z,101008.16
2023-05-22T14:10:03.358Z,101005.94
2023-05-22T14:12:30.055Z,101010.31
2023-05-22T14:14:56.553Z,101001.75
2023-05-22T14:17:23.081Z,101002.06
2023-05-22T14:19:49.576Z,100998.38
2023-05-22T14:22:16.103Z,101007.28
2023-05-22T14:24:42.609Z,100994.16
2023-05-22T14:27:10.044Z,100999.06
2023-05-22T14:29:36.616Z,100994.75
2023-05-22T14:32:04.458Z,100993.06
2023-05-22T14:34:31.507Z,100991.16
2023-05-22T14:36:58.532Z,100987.69
2023-05-22T14:39:25.600Z,100975.00
2023-05-22T14:41:53.301Z,100977.16
2023-05-22T14:44:19.978Z,100976.97
2023-05-22T14:46:46.712Z,100980.13
2023-05-22T14:49:13.300Z,100970.91
2023-05-22T14:51:39.846Z,100965.44
2023-05-22T14:54:06.983Z,100958.94
2023-05-22T14:56:33.617Z,100963.06
2023-05-22T14:59:00.153Z,100958.63
2023-05-22T15:01:26.925Z,100951.19
2023-05-22T15:03:53.477Z,100952.28
2023-05-22T15:06:20.050Z,100952.72
2023-05-22T15:08:46.592Z,100953.28
2023-05-22T15:11:13.110Z,100939.44
2023-05-22T15:13:39.724Z,100939.44
2023-05-22T15:16:06.293Z,100939.69
2023-05-22T15:18:32.874Z,100935.94
2023-05-22T15:20:59.918Z,100938.13
2023-05-22T15:23:26.897Z,100934.94
2023-05-22T15:25:54.484Z,100937.56
2023-05-22T15:28:21.570Z,100927.69
2023-05-22T15:30:48.131Z,100921.94
2023-05-22T15:33:14.976Z,100924.84
2023-05-22T15:35:43.404Z,100924.75
2023-05-22T15:38:13.162Z,100914.47
2023-05-22T15:40:40.722Z,100915.50
2023-05-22T15:43:07.911Z,100913.13
2023-05-22T15:45:35.941Z,100906.28
2023-05-22T15:48:06.660Z,100906.69
2023-05-22T15:50:33.751Z,100902.66
2023-05-22T15:53:00.684Z,100896.63
2023-05-22T15:55:27.308Z,100902.91
2023-05-22T15:57:53.807Z,100901.38
2023-05-22T16:00:21.433Z,100898.66
2023-05-22T16:02:48.934Z,100895.44
2023-05-22T16:05:15.729Z,100891.31
2023-05-22T16:07:42.277Z,100888.72
2023-05-22T16:10:09.027Z,100884.94
2023-05-22T16:12:35.986Z,100882.16
2023-05-22T16:15:04.526Z,100880.84
2023-05-22T16:17:33.576Z,100882.81
2023-05-22T16:20:00.181Z,100880.41
2023-05-22T16:22:40.092Z,100884.69
2023-05-22T16:25:14.646Z,100880.69
2023-05-22T16:27:41.202Z,100875.34
2023-05-22T16:30:08.160Z,100887.06
2023-05-22T16:32:34.798Z,100879.56
2023-05-22T16:35:01.331Z,100883.63
2023-05-22T16:37:27.924Z,100881.63
2023-05-22T16:39:54.426Z,100881.69
2023-05-22T16:42:21.062Z,100882.88
2023-05-22T16:44:47.589Z,100880.16
2023-05-22T16:47:14.178Z,100883.84
2023-05-22T16:49:41.282Z,100884.50
2023-05-22T16:52:07.871Z,100872.53
2023-05-22T16:54:34.720Z,100876.97
2023-05-22T16:57:01.776Z,100878.38
2023-05-22T16:59:28.462Z,100883.66
2023-05-22T17:01:54.999Z,100890.41
2023-05-22T17:04:21.513Z,100878.94
2023-05-22T17:06:48.987Z,100878.03
2023-05-22T17:09:15.561Z,100885.47
2023-05-22T17:11:42.098Z,100880.72
2023-05-22T17:14:08.634Z,100885.94
2023-05-22T17:16:35.303Z,100882.56
2023-05-22T17:19:01.958Z,100889.91
2023-05-22T17:21:28.810Z,100889.81
2023-05-22T17:23:55.366Z,100882.91
2023-05-22T17:26:21.904Z,100883.44
2023-05-22T17:28:48.452Z,100873.47
2023-05-22T17:31:15.035Z,100879.66
2023-05-22T17:33:41.695Z,100868.50
2023-05-22T17:36:08.322Z,100873.22
2023-05-22T17:38:34.853Z,100868.69
2023-05-22T17:41:01.462Z,100864.34
2023-05-22T17:43:28.024Z,100870.72
2023-05-22T17:45:54.699Z,100870.44
2023-05-22T17:48:27.008Z,100864.66
2023-05-22T17:50:53.672Z,100859.75
2023-05-22T17:53:20.966Z,100866.06
2023-05-22T17:55:49.085Z,100868.19
2023-05-22T17:58:16.323Z,100863.53
2023-05-22T18:00:43.525Z,100858.47
2023-05-22T18:03:10.239Z,100857.44
2023-05-22T18:05:37.206Z,100868.31
2023-05-22T18:08:03.801Z,100858.69
2023-05-22T18:10:30.388Z,100861.28
2023-05-22T18:12:56.891Z,100859.56
2023-05-22T18:15:23.429Z,100865.75
2023-05-22T18:17:50.008Z,100869.47
2023-05-22T18:20:16.919Z,100860.81
2023-05-22T18:22:43.478Z,100862.81
2023-05-22T18:25:10.406Z,100857.00
2023-05-22T18:27:36.925Z,100861.03
2023-05-22T18:30:05.237Z,100858.91
2023-05-22T18:32:32.196Z,100853.34
2023-05-22T18:34:59.695Z,100855.91
2023-05-22T18:37:26.550Z,100841.69
2023-05-22T18:39:53.108Z,100854.75
2023-05-22T18:42:19.813Z,100850.28
2023-05-22T18:44:48.191Z,100848.97
2023-05-22T18:47:15.695Z,100849.78
2023-05-22T18:49:42.246Z,100842.56
2023-05-22T18:52:08.868Z,100855.88
2023-05-22T18:54:35.454Z,100851.09
2023-05-22T18:57:01.973Z,100855.94
2023-05-22T18:59:28.510Z,100854.69
2023-05-22T19:01:55.022Z,100861.22
2023-05-22T19:04:21.569Z,100859.41
2023-05-22T19:06:48.106Z,100857.53
2023-05-22T19:09:14.663Z,100864.69
2023-05-22T19:11:41.643Z,100865.31
2023-05-22T19:14:08.331Z,100867.91
2023-05-22T19:16:34.916Z,100871.94
2023-05-22T19:19:01.496Z,100874.59
2023-05-22T19:21:28.114Z,100878.88
2023-05-22T19:23:54.618Z,100876.09
2023-05-22T19:26:21.144Z,100877.28
2023-05-22T19:28:47.662Z,100885.28
2023-05-22T19:31:14.224Z,100875.38
2023-05-22T19:33:40.762Z,100878.59
2023-05-22T19:36:07.341Z,100887.31
2023-05-22T19:38:33.892Z,100888.56
2023-05-22T19:41:00.515Z,100889.94
2023-05-22T19:43:27.135Z,100894.53
2023-05-22T19:45:54.202Z,100883.69
2023-05-22T19:48:21.362Z,100884.53
2023-05-22T19:50:47.903Z,100887.16
2023-05-22T19:53:14.817Z,100890.50
2023-05-22T19:55:41.569Z,100891.53
2023-05-22T19:58:08.144Z,100884.84
2023-05-22T20:00:35.688Z,100888.56
2023-05-22T20:03:02.438Z,100884.53
2023-05-22T20:05:29.137Z,100884.75
2023-05-22T20:07:57.755Z,100885.44
2023-05-22T20:10:24.276Z,100888.41
2023-05-22T20:12:54.002Z,100895.06
2023-05-22T20:15:21.182Z,100900.94
2023-05-22T20:17:51.754Z,100896.56
2023-05-22T20:20:21.524Z,100897.19
2023-05-22T20:22:48.210Z,100893.88
2023-05-22T20:25:14.744Z,100896.00
2023-05-22T20:27:41.289Z,100890.22
2023-05-22T20:30:11.263Z,100903.50
2023-05-22T20:32:39.139Z,100899.09
2023-05-22T20:35:12.985Z,100890.81
2023-05-22T20:37:40.997Z,100894.00
2023-05-22T20:40:09.431Z,100889.91
2023-05-22T20:42:37.331Z,100884.25
2023-05-22T20:45:05.212Z,100889.09
2023-05-22T20:47:31.810Z,100881.34
2023-05-22T20:49:58.403Z,100886.03
2023-05-22T20:52:25.569Z,100879.81
2023-05-22T20:54:52.096Z,100885.03
2023-05-22T20:57:18.614Z,100882.78
2023-05-22T20:59:45.138Z,100882.63
2023-05-22T21:02:11.653Z,100879.53
2023-05-22T21:04:38.211Z,100894.59
2023-05-22T21:07:04.939Z,100895.13
2023-05-22T21:09:31.626Z,100891.69
2023-05-22T21:11:58.148Z,100890.66
2023-05-22T21:14:24.679Z,100886.34
2023-05-22T21:16:51.253Z,100898.28
2023-05-22T21:19:17.868Z,100896.03
2023-05-22T21:21:44.429Z,100897.69
2023-05-22T21:24:11.214Z,100900.56
2023-05-22T21:26:37.922Z,100904.22
2023-05-22T21:29:04.579Z,100901.78
2023-05-22T21:31:32.678Z,100898.16
2023-05-22T21:34:00.539Z,100902.47
2023-05-22T21:36:27.052Z,100902.47
2023-05-22T21:38:56.390Z,100894.59
2023-05-22T21:41:22.998Z,100886.75
2023-05-22T21:43:49.522Z,100889.94
2023-05-22T21:46:16.143Z,100894.00
2023-05-22T21:48:42.667Z,100887.81
2023-05-22T21:51:09.993Z,100881.63
2023-05-22T21:53:36.506Z,100885.25
2023-05-22T21:56:03.067Z,100881.44
2023-05-22T21:58:29.640Z,100885.06
2023-05-22T22:00:56.558Z,100876.34
2023-05-22T22:03:23.176Z,100880.75
2023-05-22T22:05:49.788Z,100878.94
2023-05-22T22:08:16.421Z,100888.72
2023-05-22T22:10:42.952Z,100888.22
2023-05-22T22:13:09.458Z,100884.84
2023-05-22T22:15:36.622Z,100881.66
2023-05-22T22:18:05.022Z,100882.44
2023-05-22T22:20:43.341Z,100883.72
2023-05-22T22:23:11.689Z,100875.88
2023-05-22T22:25:39.194Z,100874.59
2023-05-22T22:28:05.972Z,100870.94
2023-05-22T22:30:32.619Z,100871.81
2023-05-22T22:32:59.382Z,100863.38
2023-05-22T22:35:26.420Z,100863.88
2023-05-22T22:37:52.951Z,100857.13
2023-05-22T22:40:19.441Z,100853.19
2023-05-22T22:42:45.968Z,100849.13
2023-05-22T22:45:12.469Z,100851.78
2023-05-22T22:47:39.340Z,100840.66
2023-05-22T22:50:06.262Z,100844.34
2023-05-22T22:52:32.791Z,100845.03
2023-05-22T22:54:59.495Z,100848.16
2023-05-22T22:57:26.214Z,100846.16
2023-05-22T22:59:52.717Z,100845.72
2023-05-22T23:02:19.224Z,100845.91
2023-05-22T23:04:45.896Z,100838.41
2023-05-22T23:07:12.553Z,100839.19
2023-05-22T23:09:40.175Z,100836.75
2023-05-22T23:12:06.935Z,100831.03
2023-05-22T23:14:33.484Z,100822.31
2023-05-22T23:17:00.009Z,100831.81
2023-05-22T23:19:26.855Z,100827.94
2023-05-22T23:21:53.624Z,100824.84
2023-05-22T23:24:20.133Z,100825.38
2023-05-22T23:26:46.686Z,100817.94
2023-05-22T23:29:13.210Z,100826.13
2023-05-22T23:31:40.463Z,100816.28
2023-05-22T23:34:07.212Z,100812.78
2023-05-22T23:36:33.710Z,100798.75
2023-05-22T23:39:00.444Z,100795.22
2023-05-22T23:41:27.563Z,100805.50
2023-05-22T23:43:54.198Z,100795.84
2023-05-22T23:46:21.309Z,100788.78
2023-05-22T23:48:48.013Z,100785.84
2023-05-22T23:51:14.758Z,100786.03
2023-05-22T23:53:41.897Z,100786.94
2023-05-22T23:56:09.001Z,100775.72
2023-05-22T23:58:35.718Z,100775.28
